Terminal Aerodrome Forecast
Issued by NWS

Home | Current Version | Previous Version | Text Only | Print | Product List | Glossary On
Versions: 1 2 3 4 5 6 7 8 9 10 11 12 13 14 15 16 17 18 19 20 21 22 23 24 25 26 27 28 29 30 31 32
000
FTUS41 KALY 242000 AAA
TAFPSF
TAF AMD
KPSF 242000Z 2420/2518 31010KT P6SM SCT010 OVC030
      TEMPO 2420/2424 BKN010 BKN030
     FM250000 30007KT P6SM SCT040 BKN070
     FM250500 30004KT P6SM SCT070
     FM251400 29007KT P6SM SCT070 SCT200=

USA.gov is the U.S. government's official web portal to all federal, state and local government web resources and services.